Terminal Aerodrome Forecast
Issued by NWS Sioux Falls, SD

Home | Current Version | Previous Version | Graphics & Text | Print | Product List | Glossary On
Versions: 1 2 3 4 5 6 7 8 9 10 11 12 13
000
FTUS43 KFSD 040550
TAFHON
TAF
KHON 040550Z 0406/0506 VRB04KT P6SM FEW250
     FM041400 13008KT P6SM SCT100 BKN200
     FM042000 16008KT P6SM BKN080=

USA.gov is the U.S. government's official web portal to all federal, state and local government web resources and services.